createdAt,value
2019-02-17T00:02:06.640Z,101350.98
2019-02-17T00:04:35.004Z,101352.40
2019-02-17T00:07:03.343Z,101356.13
2019-02-17T00:09:31.661Z,101352.36
2019-02-17T00:12:00.037Z,101356.59
2019-02-17T00:14:28.453Z,101346.05
2019-02-17T00:16:56.653Z,101351.96
2019-02-17T00:19:24.805Z,101352.30
2019-02-17T00:21:53.051Z,101354.58
2019-02-17T00:24:21.319Z,101359.84
2019-02-17T00:26:49.695Z,101353.47
2019-02-17T00:29:18.175Z,101352.00
2019-02-17T00:31:46.437Z,101353.62
2019-02-17T00:34:14.729Z,101352.98
2019-02-17T00:36:42.889Z,101350.11
2019-02-17T00:39:11.257Z,101352.27
2019-02-17T00:41:39.594Z,101352.16
2019-02-17T00:44:07.788Z,101358.25
2019-02-17T00:46:36.411Z,101356.89
2019-02-17T00:49:04.728Z,101352.80
2019-02-17T00:51:33.026Z,101359.19
2019-02-17T00:54:01.246Z,101355.48
2019-02-17T00:56:29.488Z,101356.95
2019-02-17T00:58:57.970Z,101353.33
2019-02-17T01:01:26.105Z,101354.25
2019-02-17T01:03:54.273Z,101350.05
2019-02-17T01:06:22.442Z,101353.05
2019-02-17T01:08:50.574Z,101354.69
2019-02-17T01:11:18.978Z,101346.58
2019-02-17T01:13:47.213Z,101347.89
2019-02-17T01:16:15.510Z,101349.83
2019-02-17T01:18:43.682Z,101345.69
2019-02-17T01:21:11.868Z,101343.23
2019-02-17T01:23:40.046Z,101341.91
2019-02-17T01:26:08.227Z,101349.52
2019-02-17T01:28:36.828Z,101346.56
2019-02-17T01:31:05.014Z,101349.92
2019-02-17T01:33:33.242Z,101346.36
2019-02-17T01:36:01.544Z,101347.40
2019-02-17T01:38:29.742Z,101340.05
2019-02-17T01:40:57.911Z,101341.36
2019-02-17T01:43:26.327Z,101344.43
2019-02-17T01:45:54.464Z,101340.21
2019-02-17T01:48:22.614Z,101336.82
2019-02-17T01:50:50.767Z,101334.45
2019-02-17T01:53:19.079Z,101333.68
2019-02-17T01:55:47.326Z,101329.23
2019-02-17T01:58:15.628Z,101329.06
2019-02-17T02:00:44.178Z,101327.56
2019-02-17T02:03:12.380Z,101326.70
2019-02-17T02:05:40.547Z,101321.22
2019-02-17T02:08:08.801Z,101318.73
2019-02-17T02:10:36.935Z,101315.58
2019-02-17T02:13:05.206Z,101317.34
2019-02-17T02:15:33.638Z,101307.84
2019-02-17T02:18:01.790Z,101308.28
2019-02-17T02:20:33.145Z,101315.28
2019-02-17T02:23:01.270Z,101307.63
2019-02-17T02:25:29.536Z,101306.07
2019-02-17T02:27:57.708Z,101298.11
2019-02-17T02:30:26.012Z,101297.81
2019-02-17T02:32:54.183Z,101296.19
2019-02-17T02:35:22.293Z,101299.00
2019-02-17T02:37:50.457Z,101290.48
2019-02-17T02:40:18.709Z,101292.00
2019-02-17T02:42:46.871Z,101297.80
2019-02-17T02:45:15.215Z,101295.80
2019-02-17T02:47:43.384Z,101292.55
2019-02-17T02:50:32.161Z,101293.69
2019-02-17T02:53:00.573Z,101287.72
2019-02-17T02:55:28.903Z,101288.98
2019-02-17T02:57:57.067Z,101287.17
2019-02-17T03:00:25.273Z,101289.16
2019-02-17T03:02:53.600Z,101290.03
2019-02-17T03:05:21.921Z,101284.34
2019-02-17T03:07:50.036Z,101277.27
2019-02-17T03:10:18.360Z,101282.00
2019-02-17T03:12:46.626Z,101280.20
2019-02-17T03:15:14.862Z,101283.33
2019-02-17T03:17:43.161Z,101280.25
2019-02-17T03:20:11.364Z,101281.73
2019-02-17T03:22:39.595Z,101278.60
2019-02-17T03:25:07.857Z,101280.37
2019-02-17T03:27:36.030Z,101283.30
2019-02-17T03:30:06.191Z,101285.77
2019-02-17T03:32:34.608Z,101289.20
2019-02-17T03:35:03.020Z,101290.03
2019-02-17T03:37:31.227Z,101287.75
2019-02-17T03:39:59.350Z,101293.45
2019-02-17T03:42:27.592Z,101289.66
2019-02-17T03:44:55.816Z,101286.12
2019-02-17T03:47:23.983Z,101285.83
2019-02-17T03:49:52.250Z,101285.32
2019-02-17T03:52:20.493Z,101281.68
2019-02-17T03:54:48.614Z,101280.59
2019-02-17T03:57:16.885Z,101283.83
2019-02-17T03:59:45.090Z,101280.42
2019-02-17T04:02:13.373Z,101281.77
2019-02-17T04:04:41.511Z,101285.07
2019-02-17T04:07:09.715Z,101285.31
2019-02-17T04:09:38.047Z,101284.42
2019-02-17T04:12:06.323Z,101286.30
2019-02-17T04:14:34.502Z,101282.66
2019-02-17T04:17:02.852Z,101284.29
2019-02-17T04:19:30.982Z,101284.58
2019-02-17T04:21:59.245Z,101284.93
2019-02-17T04:24:27.556Z,101282.99
2019-02-17T04:26:55.796Z,101281.59
2019-02-17T04:29:24.066Z,101274.21
2019-02-17T04:31:52.237Z,101276.41
2019-02-17T04:34:20.567Z,101275.89
2019-02-17T04:36:48.854Z,101267.96
2019-02-17T04:39:17.019Z,101267.88
2019-02-17T04:41:45.246Z,101267.51
2019-02-17T04:44:13.470Z,101193.55
2019-02-17T04:46:41.669Z,101271.73
2019-02-17T04:49:10.027Z,101262.55
2019-02-17T04:51:38.297Z,101262.40
2019-02-17T04:54:06.546Z,101257.81
2019-02-17T04:56:35.149Z,101256.42
2019-02-17T04:59:03.659Z,101260.52
2019-02-17T05:01:31.956Z,101257.37
2019-02-17T05:04:00.193Z,101253.37
2019-02-17T05:06:28.610Z,101247.91
2019-02-17T05:08:56.815Z,101250.77
2019-02-17T05:11:25.103Z,101248.48
2019-02-17T05:13:58.498Z,101253.16
2019-02-17T05:16:26.927Z,101238.65
2019-02-17T05:18:55.253Z,101238.96
2019-02-17T05:21:23.524Z,101235.88
2019-02-17T05:23:51.811Z,101237.14
2019-02-17T05:26:20.402Z,101240.11
2019-02-17T05:28:48.650Z,101236.52
2019-02-17T05:31:16.794Z,101240.77
2019-02-17T05:33:45.094Z,101242.14
2019-02-17T05:36:13.345Z,101234.29
2019-02-17T05:38:41.547Z,101235.20
2019-02-17T05:41:09.711Z,101234.15
2019-02-17T05:43:37.919Z,101236.26
2019-02-17T05:46:06.398Z,101229.62
2019-02-17T05:48:34.808Z,101228.16
2019-02-17T05:51:03.085Z,101226.63
2019-02-17T05:53:31.254Z,101226.54
2019-02-17T05:55:59.614Z,101229.95
2019-02-17T05:58:27.871Z,101232.59
2019-02-17T06:01:03.385Z,101229.97
2019-02-17T06:03:26.142Z,101230.03
2019-02-17T06:05:54.459Z,101233.56
2019-02-17T06:08:22.742Z,101232.15
2019-02-17T06:10:51.188Z,101225.73
2019-02-17T06:13:19.352Z,101228.88
2019-02-17T06:15:47.502Z,101233.03
2019-02-17T06:18:15.715Z,101226.92
2019-02-17T06:20:44.421Z,101226.26
2019-02-17T06:23:12.628Z,101229.82
2019-02-17T06:25:40.803Z,101224.63
2019-02-17T06:28:08.964Z,101223.61
2019-02-17T06:30:37.486Z,101226.34
2019-02-17T06:33:05.982Z,101221.41
2019-02-17T06:35:34.375Z,101233.59
2019-02-17T06:38:02.569Z,101229.08
2019-02-17T06:40:30.843Z,101233.25
2019-02-17T06:42:58.978Z,101233.62
2019-02-17T06:45:27.176Z,101236.97
2019-02-17T06:47:55.440Z,101235.14
2019-02-17T06:50:23.607Z,101236.97
2019-02-17T06:52:51.825Z,101236.30
2019-02-17T06:55:45.080Z,101236.55
2019-02-17T06:58:13.381Z,101236.89
2019-02-17T07:01:01.923Z,101230.97
2019-02-17T07:03:30.183Z,101236.97
2019-02-17T07:06:05.667Z,101235.50
2019-02-17T07:08:33.813Z,101232.42
2019-02-17T07:11:02.045Z,101229.58
2019-02-17T07:13:30.259Z,101228.05
2019-02-17T07:15:58.517Z,101228.73
2019-02-17T07:18:27.080Z,101227.80
2019-02-17T07:20:55.495Z,101230.33
2019-02-17T07:23:23.655Z,101224.14
2019-02-17T07:25:51.837Z,101230.66
2019-02-17T07:28:20.164Z,101226.19
2019-02-17T07:30:48.517Z,101229.18
2019-02-17T07:33:16.760Z,101229.85
2019-02-17T07:35:45.051Z,101227.83
2019-02-17T07:38:13.354Z,101230.14
2019-02-17T07:40:41.583Z,101224.16
2019-02-17T07:43:09.795Z,101225.16
2019-02-17T07:45:38.010Z,101228.77
2019-02-17T07:48:06.192Z,101223.13
2019-02-17T07:50:34.638Z,101226.84
2019-02-17T07:53:02.984Z,101223.94
2019-02-17T07:55:31.106Z,101219.75
2019-02-17T07:57:59.352Z,101215.17
2019-02-17T08:00:27.660Z,101221.08
2019-02-17T08:02:55.900Z,101215.91
2019-02-17T08:05:24.181Z,101217.03
2019-02-17T08:07:52.339Z,101213.30
2019-02-17T08:10:20.578Z,101212.27
2019-02-17T08:12:48.945Z,101209.09
2019-02-17T08:15:17.170Z,101207.98
2019-02-17T08:17:45.589Z,101206.87
2019-02-17T08:20:13.801Z,101211.42
2019-02-17T08:22:41.996Z,101210.70
2019-02-17T08:25:10.270Z,101203.45
2019-02-17T08:27:38.523Z,101200.00
2019-02-17T08:30:07.845Z,101202.23
2019-02-17T08:32:36.021Z,101201.94
2019-02-17T08:35:04.377Z,101201.19
2019-02-17T08:37:33.025Z,101194.28
2019-02-17T08:40:01.237Z,101193.97
2019-02-17T08:42:29.408Z,101188.78
2019-02-17T08:44:57.714Z,101185.94
2019-02-17T08:47:26.016Z,101189.18
2019-02-17T08:49:54.393Z,101190.69
2019-02-17T08:52:22.643Z,101188.70
2019-02-17T08:54:51.032Z,101094.06
2019-02-17T08:57:19.217Z,101182.93
2019-02-17T08:59:47.416Z,101188.80
2019-02-17T09:02:15.780Z,101196.91
2019-02-17T09:04:43.979Z,101185.13
2019-02-17T09:07:12.215Z,101179.49
2019-02-17T09:09:40.516Z,101185.74
2019-02-17T09:12:09.008Z,101182.70
2019-02-17T09:14:37.241Z,101184.05
2019-02-17T09:17:05.521Z,101180.48
2019-02-17T09:19:33.867Z,101169.32
2019-02-17T09:22:02.154Z,101172.77
2019-02-17T09:24:30.374Z,101168.55
2019-02-17T09:26:58.640Z,101160.45
2019-02-17T09:29:27.160Z,101168.30
2019-02-17T09:31:55.425Z,101160.45
2019-02-17T09:34:23.715Z,101165.12
2019-02-17T09:36:51.872Z,101166.14
2019-02-17T09:39:20.120Z,101160.88
2019-02-17T09:41:48.606Z,101160.14
2019-02-17T09:44:16.907Z,101167.28
2019-02-17T09:46:45.109Z,101167.03
2019-02-17T09:49:13.301Z,101154.63
2019-02-17T09:51:41.561Z,101150.09
2019-02-17T09:54:09.846Z,101149.06
2019-02-17T09:56:38.056Z,101149.37
2019-02-17T09:59:06.479Z,101151.56
2019-02-17T10:01:34.947Z,101150.10
2019-02-17T10:04:03.204Z,101146.57
2019-02-17T10:06:31.507Z,101145.45
2019-02-17T10:09:00.186Z,101139.97
2019-02-17T10:11:28.461Z,101147.09
2019-02-17T10:13:56.948Z,101149.17
2019-02-17T10:16:25.422Z,101146.73
2019-02-17T10:18:53.676Z,101142.32
2019-02-17T10:21:21.958Z,101139.95
2019-02-17T10:23:50.230Z,101141.46
2019-02-17T10:26:18.794Z,101140.16
2019-02-17T10:28:47.178Z,101129.33
2019-02-17T10:31:15.674Z,101129.08
2019-02-17T10:33:44.302Z,101126.67
2019-02-17T10:36:24.634Z,101126.21
2019-02-17T10:38:52.910Z,101123.12
2019-02-17T10:41:21.329Z,101122.58
2019-02-17T10:43:49.606Z,101120.41
2019-02-17T10:46:17.861Z,101117.83
2019-02-17T10:48:46.329Z,101114.80
2019-02-17T10:51:14.742Z,101112.55
2019-02-17T10:53:43.065Z,101109.38
2019-02-17T10:56:11.190Z,101109.13
2019-02-17T10:58:39.466Z,101104.89
2019-02-17T11:01:07.684Z,101101.79
2019-02-17T11:03:36.076Z,101106.35
2019-02-17T11:06:04.616Z,101099.50
2019-02-17T11:08:32.829Z,101098.38
2019-02-17T11:11:01.387Z,101098.16
2019-02-17T11:13:29.986Z,101094.13
2019-02-17T11:15:58.454Z,101093.09
2019-02-17T11:18:26.866Z,101092.17
2019-02-17T11:20:55.236Z,101087.58
2019-02-17T11:23:23.505Z,101083.91
2019-02-17T11:25:51.983Z,101074.67
2019-02-17T11:28:20.434Z,101072.81
2019-02-17T11:30:48.991Z,101068.41
2019-02-17T11:33:17.212Z,101056.41
2019-02-17T11:35:45.519Z,101050.30
2019-02-17T11:38:14.150Z,101068.73
2019-02-17T11:40:42.519Z,101060.61
2019-02-17T11:43:10.942Z,101057.91
2019-02-17T11:45:39.493Z,101052.90
2019-02-17T11:50:56.567Z,101049.22
2019-02-17T11:53:24.796Z,101044.19
2019-02-17T11:55:53.176Z,101038.79
2019-02-17T11:58:21.658Z,101043.47
2019-02-17T12:00:49.983Z,101042.50
2019-02-17T12:03:18.394Z,101040.31
2019-02-17T12:05:46.796Z,101035.22
2019-02-17T12:08:16.245Z,101036.83
2019-02-17T12:10:44.659Z,101032.13
2019-02-17T12:13:13.134Z,101028.08
2019-02-17T12:15:41.590Z,101025.30
2019-02-17T12:18:10.198Z,101019.16
2019-02-17T12:21:00.213Z,101022.78
2019-02-17T12:23:35.390Z,101019.14
2019-02-17T12:26:17.907Z,101019.20
2019-02-17T12:28:58.124Z,101011.56
2019-02-17T12:31:29.918Z,101017.34
2019-02-17T12:33:58.558Z,101002.02
2019-02-17T12:36:26.853Z,101000.39
2019-02-17T12:38:55.925Z,100996.20
2019-02-17T12:41:24.749Z,100990.54
2019-02-17T12:43:53.192Z,100984.52
2019-02-17T12:46:21.698Z,100994.41
2019-02-17T12:48:50.329Z,100989.17
2019-02-17T12:51:18.781Z,100986.79
2019-02-17T12:53:48.361Z,100986.37
2019-02-17T12:56:17.969Z,100986.41
2019-02-17T12:58:46.341Z,100983.36
2019-02-17T13:01:14.915Z,100982.25
2019-02-17T13:03:43.492Z,100980.96
2019-02-17T13:06:11.870Z,100978.52
2019-02-17T13:08:40.109Z,100971.25
2019-02-17T13:11:08.578Z,100965.08
2019-02-17T13:13:36.995Z,100958.82
2019-02-17T13:16:05.403Z,100969.32
2019-02-17T13:18:33.686Z,100967.98
2019-02-17T13:21:02.194Z,100968.86
2019-02-17T13:23:30.664Z,100960.41
2019-02-17T13:25:58.996Z,100960.52
2019-02-17T13:28:27.469Z,100961.03
2019-02-17T13:30:56.150Z,100956.85
2019-02-17T13:33:24.540Z,100954.84
2019-02-17T13:35:52.812Z,100951.19
2019-02-17T13:38:21.120Z,100950.24
2019-02-17T13:40:49.507Z,100947.11
2019-02-17T13:43:18.139Z,100948.51
2019-02-17T13:45:46.450Z,100930.36
2019-02-17T13:48:14.721Z,100930.36
2019-02-17T13:50:42.994Z,100930.20
2019-02-17T13:53:12.226Z,100931.23
2019-02-17T13:55:40.683Z,100928.27
2019-02-17T13:58:09.234Z,100926.20
2019-02-17T14:00:37.925Z,100923.03
2019-02-17T14:03:06.296Z,100918.91
2019-02-17T14:05:34.577Z,100922.87
2019-02-17T14:08:02.886Z,100922.87
2019-02-17T14:10:31.129Z,100906.97
2019-02-17T14:12:59.583Z,100906.97
2019-02-17T14:15:27.835Z,100906.20
2019-02-17T14:17:56.136Z,100897.66
2019-02-17T14:20:24.532Z,100897.66
2019-02-17T14:22:52.997Z,100900.98
2019-02-17T14:25:21.688Z,100900.98
2019-02-17T14:27:50.098Z,100895.73
2019-02-17T14:30:19.398Z,100893.25
2019-02-17T14:32:47.619Z,100892.05
2019-02-17T14:35:15.860Z,100892.53
2019-02-17T14:37:44.438Z,100882.00
2019-02-17T14:40:13.497Z,100885.75
2019-02-17T14:42:41.899Z,100888.03
2019-02-17T14:45:10.701Z,100876.27
2019-02-17T14:47:39.140Z,100879.12
2019-02-17T14:50:07.722Z,100874.04
2019-02-17T14:52:36.056Z,100870.17
2019-02-17T14:55:04.504Z,100867.56
2019-02-17T14:57:32.962Z,100869.69
2019-02-17T15:00:01.219Z,100869.58
2019-02-17T15:02:29.977Z,100868.31
2019-02-17T15:04:58.387Z,100860.98
2019-02-17T15:07:26.835Z,100861.42
2019-02-17T15:09:55.205Z,100864.92
2019-02-17T15:12:23.709Z,100863.58
2019-02-17T15:14:52.021Z,100866.22
2019-02-17T15:17:20.921Z,100858.01
2019-02-17T15:19:49.234Z,100854.78
2019-02-17T15:22:17.703Z,100854.78
2019-02-17T15:24:46.205Z,100856.66
2019-02-17T15:27:14.406Z,100861.91
2019-02-17T15:29:43.089Z,100863.59
2019-02-17T15:32:11.567Z,100856.20
2019-02-17T15:34:39.948Z,100852.31
2019-02-17T15:37:08.416Z,100851.16
2019-02-17T15:39:36.872Z,100848.59
2019-02-17T15:42:05.428Z,100854.58
2019-02-17T15:44:33.658Z,100851.83
2019-02-17T15:47:02.380Z,100851.02
2019-02-17T15:49:30.659Z,100849.77
2019-02-17T15:51:59.262Z,100853.02
2019-02-17T15:54:28.156Z,100857.02
2019-02-17T15:56:56.682Z,100851.90
2019-02-17T15:59:25.685Z,100853.27
2019-02-17T16:01:54.223Z,100853.45
2019-02-17T16:04:28.550Z,100854.72
2019-02-17T16:06:52.897Z,100848.88
2019-02-17T16:09:21.215Z,100854.82
2019-02-17T16:11:49.636Z,100848.09
2019-02-17T16:14:18.199Z,100846.06
2019-02-17T16:16:46.861Z,100840.98
2019-02-17T16:19:15.152Z,100836.64
2019-02-17T16:21:43.393Z,100840.16
2019-02-17T16:24:11.787Z,100840.60
2019-02-17T16:26:40.492Z,100838.51
2019-02-17T16:29:09.387Z,100845.70
2019-02-17T16:31:37.981Z,100840.45
2019-02-17T16:34:06.665Z,100844.03
2019-02-17T16:36:35.190Z,100843.92
2019-02-17T16:39:05.515Z,100841.00
2019-02-17T16:41:34.037Z,100840.31
2019-02-17T16:44:03.370Z,100843.36
2019-02-17T16:46:32.824Z,100848.09
2019-02-17T16:49:01.093Z,100846.09
2019-02-17T16:51:30.131Z,100841.19
2019-02-17T16:53:59.120Z,100844.63
2019-02-17T16:56:28.427Z,100849.59
2019-02-17T16:58:57.392Z,100845.95
2019-02-17T17:01:26.452Z,100851.08
2019-02-17T17:03:55.075Z,100843.88
2019-02-17T17:06:23.430Z,100843.72
2019-02-17T17:08:52.466Z,100851.13
2019-02-17T17:11:22.384Z,100840.89
2019-02-17T17:13:53.801Z,100840.80
2019-02-17T17:16:22.560Z,100846.25
2019-02-17T17:18:52.736Z,100846.73
2019-02-17T17:21:21.791Z,100852.38
2019-02-17T17:23:50.277Z,100847.84
2019-02-17T17:26:18.568Z,100849.44
2019-02-17T17:28:47.147Z,100852.88
2019-02-17T17:31:15.653Z,100852.41
2019-02-17T17:33:44.303Z,100856.92
2019-02-17T17:36:12.731Z,100856.34
2019-02-17T17:38:41.419Z,100854.42
2019-02-17T17:41:09.927Z,100846.30
2019-02-17T17:43:39.140Z,100837.63
2019-02-17T17:46:07.620Z,100839.64
2019-02-17T17:48:36.507Z,100837.88
2019-02-17T17:51:06.394Z,100841.45
2019-02-17T17:53:35.474Z,100841.15
2019-02-17T17:56:05.661Z,100847.13
2019-02-17T17:58:35.460Z,100848.92
2019-02-17T18:01:08.850Z,100848.15
2019-02-17T18:03:37.858Z,100848.06
2019-02-17T18:06:06.993Z,100845.88
2019-02-17T18:08:38.308Z,100846.61
2019-02-17T18:11:06.756Z,100844.52
2019-02-17T18:13:35.957Z,100846.38
2019-02-17T18:16:05.516Z,100842.59
2019-02-17T18:18:34.909Z,100840.20
2019-02-17T18:21:03.982Z,100843.39
2019-02-17T18:23:33.220Z,100842.68
2019-02-17T18:26:03.661Z,100842.81
2019-02-17T18:28:35.251Z,100852.06
2019-02-17T18:31:04.759Z,100847.65
2019-02-17T18:33:33.800Z,100850.79
2019-02-17T18:36:03.623Z,100851.36
2019-02-17T18:38:33.230Z,100848.59
2019-02-17T18:41:03.080Z,100847.95
2019-02-17T18:43:32.241Z,100840.36
2019-02-17T18:46:02.765Z,100839.50
2019-02-17T18:48:31.423Z,100845.17
2019-02-17T18:51:00.904Z,100848.55
2019-02-17T18:53:30.591Z,100849.05
2019-02-17T18:56:00.574Z,100845.01
2019-02-17T18:58:30.491Z,100849.42
2019-02-17T19:01:00.189Z,100855.61
2019-02-17T19:03:29.772Z,100855.16
2019-02-17T19:06:09.980Z,100854.52
2019-02-17T19:08:40.166Z,100855.02
2019-02-17T19:11:10.454Z,100853.20
2019-02-17T19:13:40.746Z,100850.08
2019-02-17T19:16:10.978Z,100855.50
2019-02-17T19:18:40.911Z,100851.41
2019-02-17T19:21:10.859Z,100849.99
2019-02-17T19:23:40.622Z,100847.42
2019-02-17T19:26:11.900Z,100849.22
2019-02-17T19:28:41.906Z,100840.42
2019-02-17T19:31:11.556Z,100846.48
2019-02-17T19:33:40.920Z,100851.06
2019-02-17T19:36:11.153Z,100853.61
2019-02-17T19:38:41.507Z,100855.86
2019-02-17T19:41:11.536Z,100853.61
2019-02-17T19:43:40.944Z,100859.76
2019-02-17T19:46:10.866Z,100856.83
2019-02-17T19:48:40.561Z,100866.81
2019-02-17T19:51:10.556Z,100865.73
2019-02-17T19:53:40.010Z,100864.81
2019-02-17T19:56:11.779Z,100866.11
2019-02-17T19:58:41.549Z,100872.30
2019-02-17T20:01:13.896Z,100867.46
2019-02-17T20:04:02.461Z,100868.62
2019-02-17T20:06:31.729Z,100867.70
2019-02-17T20:09:01.698Z,100872.56
2019-02-17T20:11:30.844Z,100878.88
2019-02-17T20:14:00.177Z,100878.59
2019-02-17T20:16:31.159Z,100884.87
2019-02-17T20:19:01.989Z,100881.35
2019-02-17T20:21:32.458Z,100881.87
2019-02-17T20:24:01.283Z,100882.87
2019-02-17T20:26:31.290Z,100877.16
2019-02-17T20:29:01.411Z,100881.09
2019-02-17T20:31:31.286Z,100881.06
2019-02-17T20:34:00.439Z,100882.45
2019-02-17T20:36:29.874Z,100880.77
2019-02-17T20:38:59.506Z,100886.08
2019-02-17T20:41:28.922Z,100880.77
2019-02-17T20:43:58.594Z,100889.66
2019-02-17T20:46:27.637Z,100886.09
2019-02-17T20:48:56.623Z,100889.58
2019-02-17T20:51:25.745Z,100896.33
2019-02-17T20:53:55.036Z,100893.61
2019-02-17T20:56:25.607Z,100901.14
2019-02-17T20:58:56.209Z,100894.54
2019-02-17T21:01:25.689Z,100897.66
2019-02-17T21:03:54.615Z,100893.23
2019-02-17T21:06:24.855Z,100895.02
2019-02-17T21:08:54.867Z,100895.88
2019-02-17T21:11:23.570Z,100896.34
2019-02-17T21:13:53.306Z,100891.92
2019-02-17T21:16:22.179Z,100903.41
2019-02-17T21:18:50.666Z,100906.05
2019-02-17T21:21:19.523Z,100907.81
2019-02-17T21:23:47.851Z,100914.87
2019-02-17T21:26:16.496Z,100912.20
2019-02-17T21:28:44.937Z,100915.34
2019-02-17T21:31:13.883Z,100912.24
2019-02-17T21:33:42.578Z,100910.45
2019-02-17T21:36:11.060Z,100910.02
2019-02-17T21:38:39.639Z,100908.24
2019-02-17T21:41:09.526Z,100919.74
2019-02-17T21:43:38.361Z,100910.91
2019-02-17T21:46:06.646Z,100911.80
2019-02-17T21:48:35.016Z,100909.55
2019-02-17T21:51:03.672Z,100914.39
2019-02-17T21:53:32.431Z,100913.09
2019-02-17T21:56:00.641Z,100909.53
2019-02-17T21:58:29.043Z,100903.38
2019-02-17T22:00:57.282Z,100905.57
2019-02-17T22:03:25.454Z,100902.91
2019-02-17T22:05:53.690Z,100904.98
2019-02-17T22:08:22.081Z,100897.17
2019-02-17T22:10:50.346Z,100896.14
2019-02-17T22:13:18.963Z,100895.30
2019-02-17T22:15:47.332Z,100895.55
2019-02-17T22:18:19.991Z,100898.19
2019-02-17T22:20:48.538Z,100892.13
2019-02-17T22:23:16.842Z,100891.70
2019-02-17T22:25:45.236Z,100885.94
2019-02-17T22:28:13.647Z,100887.77
2019-02-17T22:30:41.810Z,100887.21
2019-02-17T22:33:10.129Z,100888.92
2019-02-17T22:35:38.392Z,100885.00
2019-02-17T22:38:06.548Z,100884.08
2019-02-17T22:40:34.888Z,100885.52
2019-02-17T22:43:03.086Z,100887.98
2019-02-17T22:45:31.300Z,100892.34
2019-02-17T22:47:59.662Z,100895.03
2019-02-17T22:50:27.942Z,100893.76
2019-02-17T22:52:56.146Z,100893.02
2019-02-17T22:55:24.504Z,100891.94
2019-02-17T22:57:52.788Z,100888.41
2019-02-17T23:00:59.577Z,100887.58
2019-02-17T23:03:28.085Z,100888.83
2019-02-17T23:05:56.417Z,100889.73
2019-02-17T23:08:24.745Z,100888.41
2019-02-17T23:10:53.265Z,100885.32
2019-02-17T23:13:21.516Z,100889.30
2019-02-17T23:15:49.775Z,100886.17
2019-02-17T23:18:17.944Z,100893.19
2019-02-17T23:20:46.108Z,100898.80
2019-02-17T23:23:14.324Z,100897.50
2019-02-17T23:25:42.647Z,100889.70
2019-02-17T23:28:10.978Z,100896.09
2019-02-17T23:30:39.117Z,100896.23
2019-02-17T23:33:07.682Z,100901.36
2019-02-17T23:35:35.912Z,100904.36
2019-02-17T23:38:04.031Z,100907.93
2019-02-17T23:40:32.336Z,100912.20
2019-02-17T23:43:00.590Z,100904.47
2019-02-17T23:45:28.810Z,100909.99
2019-02-17T23:47:56.975Z,100910.34
2019-02-17T23:50:25.187Z,100909.30
2019-02-17T23:52:54.661Z,100915.37
2019-02-17T23:55:23.233Z,100910.46
2019-02-17T23:57:51.458Z,100914.05
